Guymon, Oklahoma
Current Conditions -  °F | °C
As of 10:53 PM on Wednesday 26 Nov 2014 (Local Time) from KGUY Reporting Station
Clear Clear  
Wind Chill: 32°   Ceiling: Unl
Heat Index: 32°   Visibility: 10mi
Dew Point: 18°   Wind: 3mph
Humidity: 56%   Direction: 120°ESE
Pressure: 30.39"   Gusts: NA
Location:  36.68°N, 101.48°W
Report Text: KGUY 270453Z AUTO 12003KT 10SM CLR 00/M08 A3039 RMK AO2 SLP293 T00001078
Loading
Personal Weather Stations






























Interactive Weather Map New forecast layout! Learn more

10-Day Weather Forecast

Advertisements
Track Severe Weather on mobile